KMHR Airport Information

Runway Information
Runway 04L Length 6040 ft width 150 ft
Elevation 78 ft Threshold 0 ft Heading 54
Runway 22R Length 6040 ft Width 150 ft
Elevation 95 ft Threshold 0 ft Heading 234
Runway 04R Length 11301 ft width 150 ft
Elevation 75 ft Threshold 0 ft Heading 54
Runway 22L Length 11301 ft Width 150 ft
Elevation 96 ft Threshold 0 ft Heading 234
Airport Frequencies
Type A/D Name NORCAL APP Frequency 127.4 MHZ
Type ATIS Name ATIS Frequency 118.325 MHZ
Type CLD Name CLNC DEL Frequency 121.85 MHZ
Type GND Name GND Frequency 121.85 MHZ
Type OPS Name SPARTAN OP Frequency 34.1 MHZ
Type TWR Name TWR Frequency 120.65 MHZ
Type UNIC Name UNICOM Frequency 123.075 MHZ
Airport Navaids
Airport Weather Information & NOTAM
ADDS - METARS form results

(0904 UTC 27 February 2020)
Data provider http://aviationweather.gov/metar/data/
 
Forecast for: KMHR (MATHER FIELD , CA, US)
Text: KMHR 270531Z 2706/2806 VRB05KT P6SM SKC
Forecast period: 0600 UTC 27 February 2020 to 0600 UTC 28 February 2020
Forecast type: FROM: standard forecast or significant change
Winds: variable direction winds at 6 MPH (5 knots; 2.6 m/s)
Visibility: 6 or more miles 10+ km)
Clouds: clear skies
Weather: no significant weather forecast for this period